Time;durP1;ratioP1;P1;durP2;ratioP2;P2;SDS_P1;SDS_P2;PMS_P1;PMS_P2;Temp;Humidity;BMP_temperature;BMP_pressure;BME280_temperature;BME280_humidity;BME280_pressure;Samples;Min_cycle;Max_cycle;Signal;HPM_P1;HPM_P2
2021/12/30 00:02:18;;;;;;;0.50;0.50;;;13.60;99.90;;;;;;4979682;28;20022;-85
2021/12/30 00:04:44;;;;;;;2.10;0.88;;;13.60;99.90;;;;;;4981361;28;20026;-86
2021/12/30 00:07:10;;;;;;;0.47;0.40;;;13.60;99.90;;;;;;4979233;28;20035;-85
2021/12/30 00:09:37;;;;;;;1.63;0.40;;;13.40;99.90;;;;;;4979848;28;20030;-82
2021/12/30 00:12:04;;;;;;;1.30;0.40;;;13.30;99.90;;;;;;4976611;28;20110;-83
2021/12/30 00:14:30;;;;;;;0.17;0.17;;;13.30;99.90;;;;;;4978382;28;20049;-84
2021/12/30 00:16:56;;;;;;;0.50;0.40;;;13.30;99.90;;;;;;4981824;28;20039;-84
2021/12/30 00:19:21;;;;;;;1.13;0.40;;;13.30;99.90;;;;;;4983263;28;20165;-86
2021/12/30 00:21:47;;;;;;;0.57;0.30;;;13.20;99.90;;;;;;4974751;28;20035;-83
2021/12/30 00:24:12;;;;;;;1.08;0.60;;;13.40;99.90;;;;;;4985637;28;20034;-84
2021/12/30 00:26:38;;;;;;;0.40;0.30;;;13.60;99.90;;;;;;4974674;28;20447;-84
2021/12/30 00:29:04;;;;;;;0.30;0.30;;;13.60;99.90;;;;;;4978610;28;20147;-86
2021/12/30 00:31:30;;;;;;;1.38;0.50;;;13.60;99.90;;;;;;4978282;28;20023;-85
2021/12/30 00:33:56;;;;;;;0.68;0.38;;;13.60;99.90;;;;;;4974853;28;20015;-86
2021/12/30 00:36:21;;;;;;;0.73;0.40;;;13.60;99.90;;;;;;4977526;28;20109;-86
2021/12/30 00:38:48;;;;;;;0.47;0.30;;;13.60;99.90;;;;;;4977816;28;20046;-84
2021/12/30 00:41:14;;;;;;;2.35;0.60;;;13.50;99.90;;;;;;4969085;28;20023;-83
2021/12/30 00:43:40;;;;;;;1.25;0.50;;;13.50;99.90;;;;;;4974470;28;20047;-82
2021/12/30 00:46:07;;;;;;;0.93;0.80;;;13.50;99.90;;;;;;4974484;28;20027;-83
2021/12/30 00:48:33;;;;;;;0.88;0.47;;;13.50;99.90;;;;;;4974761;28;20023;-82
2021/12/30 00:50:59;;;;;;;1.17;0.60;;;13.40;99.90;;;;;;4976865;28;20027;-81
2021/12/30 00:53:25;;;;;;;1.15;0.60;;;13.50;99.90;;;;;;4969100;28;20043;-81
2021/12/30 00:55:51;;;;;;;1.45;0.50;;;13.40;99.90;;;;;;4974615;28;20030;-84
2021/12/30 00:58:17;;;;;;;1.33;0.52;;;13.40;99.90;;;;;;4973867;28;20031;-83
2021/12/30 01:00:45;;;;;;;3.80;0.50;;;13.40;99.90;;;;;;4971498;28;20563;-86
2021/12/30 01:03:12;;;;;;;1.73;0.40;;;13.60;99.90;;;;;;4977931;28;20023;-85
2021/12/30 01:05:38;;;;;;;1.55;0.50;;;13.50;99.90;;;;;;4984575;28;20019;-87
2021/12/30 01:08:04;;;;;;;0.40;0.40;;;13.50;99.90;;;;;;4984403;28;20050;-86
2021/12/30 01:10:30;;;;;;;1.38;0.45;;;13.50;99.90;;;;;;4973115;28;20103;-85
2021/12/30 01:12:59;;;;;;;0.40;0.40;;;13.40;99.90;;;;;;4991937;28;20046;-84
2021/12/30 01:15:34;;;;;;;1.08;0.63;;;13.30;99.90;;;;;;4972358;28;20447;-81
2021/12/30 01:20:47;;;;;;;1.02;0.57;;;13.30;99.90;;;;;;4975885;28;20037;-83
2021/12/30 01:23:13;;;;;;;0.73;0.32;;;13.30;99.90;;;;;;4974427;28;20026;-83
2021/12/30 01:25:38;;;;;;;0.28;0.25;;;13.20;99.90;;;;;;4972909;28;20553;-84
2021/12/30 01:28:04;;;;;;;1.92;0.35;;;13.20;99.90;;;;;;4976800;28;20027;-83
2021/12/30 01:30:29;;;;;;;0.60;0.50;;;13.20;99.90;;;;;;4975166;28;20025;-79
2021/12/30 01:32:55;;;;;;;0.65;0.60;;;13.20;99.90;;;;;;4979674;28;20037;-82
2021/12/30 01:35:25;;;;;;;1.40;0.60;;;13.20;99.90;;;;;;4982927;28;20026;-82
2021/12/30 01:37:52;;;;;;;1.95;1.58;;;13.20;99.90;;;;;;4979106;28;20030;-86
2021/12/30 01:40:18;;;;;;;3.13;0.60;;;13.10;99.90;;;;;;4986943;28;20109;-86
2021/12/30 01:42:43;;;;;;;1.08;0.40;;;13.10;99.90;;;;;;4991217;28;20060;-86
2021/12/30 01:45:11;;;;;;;1.15;0.32;;;13.20;99.90;;;;;;4982352;28;20110;-85
2021/12/30 01:47:42;;;;;;;1.10;0.50;;;13.10;99.90;;;;;;4978380;28;20027;-85
2021/12/30 01:50:10;;;;;;;1.95;0.60;;;13.20;99.90;;;;;;4980935;28;20033;-83
2021/12/30 01:52:35;;;;;;;0.88;0.50;;;13.20;99.90;;;;;;4980295;28;20030;-85
2021/12/30 01:55:01;;;;;;;1.73;0.70;;;13.30;99.90;;;;;;4977348;28;20111;-78
2021/12/30 01:57:26;;;;;;;4.88;0.50;;;13.30;99.90;;;;;;4980730;28;20050;-78
2021/12/30 01:59:52;;;;;;;2.05;0.70;;;13.30;99.90;;;;;;4974019;28;20027;-79
2021/12/30 02:02:18;;;;;;;1.85;0.95;;;13.30;99.90;;;;;;4978032;28;20073;-77
2021/12/30 02:04:43;;;;;;;2.42;0.73;;;13.10;99.90;;;;;;5000104;28;20027;-76
2021/12/30 02:07:09;;;;;;;1.52;0.52;;;13.10;99.90;;;;;;4987180;28;20396;-77
2021/12/30 02:09:35;;;;;;;1.90;0.55;;;13.00;99.90;;;;;;4978344;28;20045;-78
2021/12/30 02:12:03;;;;;;;2.33;0.60;;;13.00;99.90;;;;;;4982548;28;20034;-79
2021/12/30 02:14:33;;;;;;;1.45;0.50;;;13.00;99.90;;;;;;4977859;28;20117;-76
2021/12/30 02:16:58;;;;;;;3.97;1.63;;;13.00;99.90;;;;;;4971876;28;20062;-77
2021/12/30 02:19:24;;;;;;;0.57;0.43;;;13.00;99.90;;;;;;4971872;28;20023;-76
2021/12/30 02:21:49;;;;;;;2.90;0.73;;;13.00;99.90;;;;;;4974928;28;20022;-76
2021/12/30 02:24:15;;;;;;;1.05;0.60;;;12.90;99.90;;;;;;4972550;28;20495;-77
2021/12/30 02:26:41;;;;;;;1.55;0.60;;;12.90;99.90;;;;;;4976302;28;20526;-76
2021/12/30 02:29:06;;;;;;;2.45;1.38;;;13.10;99.90;;;;;;4972756;28;20031;-77
2021/12/30 02:31:32;;;;;;;1.10;0.45;;;13.10;99.90;;;;;;4969469;28;20550;-76
2021/12/30 02:33:58;;;;;;;1.35;0.80;;;13.10;99.90;;;;;;4980809;28;20031;-78
2021/12/30 02:36:30;;;;;;;1.75;0.60;;;13.10;99.90;;;;;;4996658;28;20164;-75
2021/12/30 02:38:56;;;;;;;3.17;0.60;;;13.10;99.90;;;;;;4991523;28;20027;-76
2021/12/30 02:41:22;;;;;;;4.70;0.80;;;13.20;99.90;;;;;;4997065;28;20026;-76
2021/12/30 02:43:49;;;;;;;1.48;0.65;;;13.10;99.90;;;;;;4987553;28;20027;-77
2021/12/30 02:46:22;;;;;;;1.98;0.50;;;13.10;99.90;;;;;;4996139;28;20023;-76
2021/12/30 02:48:52;;;;;;;0.70;0.40;;;13.10;99.90;;;;;;4995484;28;20086;-77
2021/12/30 02:51:19;;;;;;;4.35;0.70;;;13.10;99.90;;;;;;4996881;28;20025;-77
2021/12/30 02:53:44;;;;;;;2.45;0.50;;;13.10;99.90;;;;;;4985678;28;20027;-76
2021/12/30 02:56:19;;;;;;;0.65;0.35;;;13.00;99.90;;;;;;4997487;28;20084;-77
2021/12/30 02:58:45;;;;;;;1.05;0.50;;;12.90;99.90;;;;;;4992109;28;20054;-77
2021/12/30 03:01:23;;;;;;;3.28;0.50;;;12.90;99.90;;;;;;4977830;28;20038;-77
2021/12/30 03:03:49;;;;;;;0.60;0.50;;;12.90;99.90;;;;;;4979538;28;20377;-78
2021/12/30 03:06:16;;;;;;;1.50;0.45;;;13.10;99.90;;;;;;4990418;28;20035;-75
2021/12/30 03:08:43;;;;;;;0.93;0.47;;;13.40;99.90;;;;;;4972421;28;20026;-77
2021/12/30 03:11:09;;;;;;;0.65;0.65;;;13.40;99.90;;;;;;4974497;28;20019;-76
2021/12/30 03:13:36;;;;;;;1.42;0.43;;;13.50;99.90;;;;;;4972643;28;20554;-76
2021/12/30 03:16:09;;;;;;;0.95;0.43;;;13.40;99.90;;;;;;4972073;28;20033;-77
2021/12/30 03:18:36;;;;;;;1.23;0.40;;;13.50;99.90;;;;;;4973842;28;20037;-76
2021/12/30 03:21:04;;;;;;;0.65;0.45;;;13.40;99.90;;;;;;4972270;28;20034;-77
2021/12/30 03:23:30;;;;;;;1.50;0.40;;;13.30;99.90;;;;;;4972726;28;20057;-76
2021/12/30 03:25:56;;;;;;;3.30;0.65;;;13.30;99.90;;;;;;4970934;28;20058;-77
2021/12/30 03:28:21;;;;;;;1.00;0.40;;;13.20;99.90;;;;;;4973264;28;20494;-76
2021/12/30 03:30:48;;;;;;;0.55;0.40;;;13.10;99.90;;;;;;4972993;28;20033;-76
2021/12/30 03:33:13;;;;;;;0.70;0.45;;;13.20;99.90;;;;;;4972188;28;20076;-77
2021/12/30 03:35:39;;;;;;;1.05;0.25;;;13.30;99.90;;;;;;4971209;28;20019;-76
2021/12/30 03:38:05;;;;;;;1.25;0.50;;;13.30;99.90;;;;;;4972381;28;20042;-82
2021/12/30 03:40:31;;;;;;;0.73;0.40;;;13.30;99.90;;;;;;4972928;28;20395;-81
2021/12/30 03:42:57;;;;;;;0.73;0.30;;;13.30;99.90;;;;;;4973833;28;20030;-81
2021/12/30 03:45:23;;;;;;;0.75;0.40;;;13.30;99.90;;;;;;4974987;28;20066;-82
2021/12/30 03:47:50;;;;;;;0.60;0.40;;;13.30;99.90;;;;;;4974766;28;20380;-81
2021/12/30 03:50:21;;;;;;;2.75;0.60;;;13.20;99.90;;;;;;4973980;28;20054;-80
2021/12/30 03:52:52;;;;;;;0.50;0.30;;;13.20;99.90;;;;;;4974113;28;20022;-83
2021/12/30 03:55:19;;;;;;;0.40;0.40;;;13.30;99.90;;;;;;4976072;28;20347;-83
2021/12/30 03:57:46;;;;;;;0.75;0.30;;;13.20;99.90;;;;;;4971773;28;20034;-80
2021/12/30 04:00:13;;;;;;;0.90;0.77;;;13.30;99.90;;;;;;4973725;28;20065;-81
2021/12/30 04:02:39;;;;;;;1.35;0.40;;;13.20;99.90;;;;;;4974202;28;20023;-80
2021/12/30 04:05:06;;;;;;;2.70;0.40;;;13.20;99.90;;;;;;4985084;28;20026;-78
2021/12/30 04:07:32;;;;;;;0.65;0.32;;;13.20;99.90;;;;;;4996474;28;20519;-80
2021/12/30 04:09:58;;;;;;;0.77;0.47;;;13.10;99.90;;;;;;4972316;28;20058;-81
2021/12/30 04:12:23;;;;;;;0.22;0.22;;;13.10;99.90;;;;;;4974038;28;20094;-80
2021/12/30 04:14:49;;;;;;;1.77;0.65;;;13.10;99.90;;;;;;4970984;28;20038;-80
2021/12/30 04:17:14;;;;;;;0.68;0.40;;;13.10;99.90;;;;;;4972731;28;20041;-80
2021/12/30 04:19:40;;;;;;;0.73;0.50;;;13.00;99.90;;;;;;4974101;28;20019;-80
2021/12/30 04:22:06;;;;;;;0.75;0.35;;;13.00;99.90;;;;;;4975347;28;20499;-80
2021/12/30 04:24:32;;;;;;;0.60;0.45;;;13.00;99.90;;;;;;4973194;28;20035;-80
2021/12/30 04:26:57;;;;;;;0.25;0.25;;;13.00;99.90;;;;;;4975153;28;20117;-80
2021/12/30 04:29:23;;;;;;;0.93;0.50;;;13.00;99.90;;;;;;4975333;28;20026;-80
2021/12/30 04:31:48;;;;;;;0.95;0.60;;;13.00;99.90;;;;;;4974314;28;20042;-80
2021/12/30 04:34:15;;;;;;;1.48;0.40;;;12.90;99.90;;;;;;4974039;28;20030;-81
2021/12/30 04:36:41;;;;;;;0.30;0.30;;;12.90;99.90;;;;;;4975171;28;20490;-81
2021/12/30 04:39:08;;;;;;;0.45;0.30;;;13.00;99.90;;;;;;4971675;28;20046;-80
2021/12/30 04:41:33;;;;;;;0.63;0.30;;;13.00;99.90;;;;;;4971273;28;20102;-80
2021/12/30 04:43:59;;;;;;;1.08;0.43;;;13.10;99.90;;;;;;4974673;28;20090;-80
2021/12/30 04:46:25;;;;;;;0.50;0.40;;;13.00;99.90;;;;;;4974228;28;20119;-80
2021/12/30 04:48:51;;;;;;;0.38;0.38;;;13.00;99.90;;;;;;4975042;28;20023;-81
2021/12/30 04:51:17;;;;;;;0.20;0.20;;;12.90;99.90;;;;;;4973223;28;20019;-81
2021/12/30 04:53:43;;;;;;;1.30;0.85;;;12.90;99.90;;;;;;4975010;28;20103;-79
2021/12/30 04:56:09;;;;;;;1.90;0.70;;;12.80;99.90;;;;;;4972621;28;20118;-80
2021/12/30 04:58:35;;;;;;;0.75;0.25;;;12.90;99.90;;;;;;4973157;28;20558;-81
2021/12/30 05:01:01;;;;;;;0.25;0.25;;;12.90;99.90;;;;;;4973389;28;20027;-80
2021/12/30 05:03:27;;;;;;;1.48;0.50;;;12.80;99.90;;;;;;4971951;28;20597;-80
2021/12/30 05:05:53;;;;;;;1.05;0.40;;;12.70;99.90;;;;;;4974181;28;20019;-80
2021/12/30 05:08:21;;;;;;;1.48;0.55;;;12.70;99.90;;;;;;4974044;28;20031;-80
2021/12/30 05:10:48;;;;;;;3.13;0.50;;;12.70;99.90;;;;;;4977127;28;20030;-81
2021/12/30 05:13:14;;;;;;;1.40;0.40;;;12.70;99.90;;;;;;4980999;28;20034;-81
2021/12/30 05:15:40;;;;;;;1.98;0.60;;;12.70;99.90;;;;;;4978049;28;20015;-79
2021/12/30 05:18:12;;;;;;;1.27;0.40;;;12.70;99.90;;;;;;4976478;28;20574;-81
2021/12/30 05:20:38;;;;;;;;;;;12.70;99.90;;;;;;4973860;28;20521;-80
2021/12/30 05:23:04;;;;;;;0.50;0.40;;;12.60;99.90;;;;;;4972223;28;19985;-80
2021/12/30 05:25:30;;;;;;;1.10;0.45;;;12.60;99.90;;;;;;4975575;28;20042;-80
2021/12/30 05:27:57;;;;;;;0.32;0.32;;;12.60;99.90;;;;;;4972984;28;20034;-80
2021/12/30 05:30:23;;;;;;;1.83;0.50;;;12.50;99.90;;;;;;4976595;28;20047;-80
2021/12/30 05:32:50;;;;;;;1.40;0.50;;;12.50;99.90;;;;;;4974806;28;20114;-80
2021/12/30 05:35:16;;;;;;;1.63;0.50;;;12.50;99.90;;;;;;4976121;28;20030;-81
2021/12/30 05:37:43;;;;;;;2.10;0.40;;;12.50;99.90;;;;;;4976975;28;20034;-81
2021/12/30 05:40:13;;;;;;;2.40;0.73;;;12.50;99.90;;;;;;4978085;28;20027;-80
2021/12/30 05:42:39;;;;;;;2.40;0.50;;;12.50;99.90;;;;;;4973689;28;20046;-80
2021/12/30 05:45:06;;;;;;;0.40;0.38;;;12.40;99.90;;;;;;4981006;28;20126;-79
2021/12/30 05:47:33;;;;;;;2.78;0.50;;;12.50;99.90;;;;;;4978017;28;20484;-80
2021/12/30 05:50:00;;;;;;;2.90;0.30;;;12.50;99.90;;;;;;4987866;28;20062;-79
2021/12/30 05:52:25;;;;;;;0.40;0.40;;;12.50;99.90;;;;;;4988373;28;20033;-79
2021/12/30 05:54:51;;;;;;;0.30;0.30;;;12.50;99.90;;;;;;4982640;28;20047;-80
2021/12/30 05:57:16;;;;;;;0.50;0.50;;;12.50;99.90;;;;;;4981322;28;20030;-80
2021/12/30 05:59:42;;;;;;;0.80;0.50;;;12.50;99.90;;;;;;4980482;28;20031;-81
2021/12/30 06:02:07;;;;;;;1.90;0.40;;;12.50;99.90;;;;;;4976036;28;20031;-81
2021/12/30 06:04:33;;;;;;;2.45;0.68;;;12.50;99.90;;;;;;4975354;28;20103;-80
2021/12/30 06:06:59;;;;;;;0.70;0.70;;;12.50;99.90;;;;;;4992692;28;20077;-78
2021/12/30 06:09:26;;;;;;;0.90;0.45;;;12.50;99.90;;;;;;4989651;28;20567;-80
2021/12/30 06:11:52;;;;;;;1.80;1.40;;;12.40;99.90;;;;;;4976841;28;20387;-80
2021/12/30 06:14:18;;;;;;;1.17;0.80;;;12.50;99.90;;;;;;4975427;28;20019;-80
2021/12/30 06:16:43;;;;;;;1.08;0.60;;;12.50;99.90;;;;;;4972066;28;20033;-81
2021/12/30 06:19:09;;;;;;;0.98;0.45;;;12.50;99.90;;;;;;4976526;28;20070;-81
2021/12/30 06:21:34;;;;;;;1.95;0.70;;;12.50;99.90;;;;;;4977105;28;20031;-81
2021/12/30 06:24:00;;;;;;;3.83;2.83;;;12.50;99.90;;;;;;4975663;28;20347;-80
2021/12/30 06:26:25;;;;;;;2.33;2.00;;;12.50;99.90;;;;;;4975097;28;20203;-80
2021/12/30 06:28:51;;;;;;;4.07;3.40;;;12.50;99.90;;;;;;4974978;28;20491;-81
2021/12/30 06:31:17;;;;;;;5.22;2.03;;;12.60;99.90;;;;;;4976868;28;20087;-80
2021/12/30 06:33:43;;;;;;;1.70;0.70;;;12.60;99.90;;;;;;4975079;28;20475;-80
2021/12/30 06:36:10;;;;;;;2.33;0.68;;;12.50;99.90;;;;;;4973366;28;20058;-80
2021/12/30 06:38:36;;;;;;;1.40;0.75;;;12.50;99.90;;;;;;4973902;28;20118;-82
2021/12/30 06:41:02;;;;;;;0.75;0.50;;;12.50;99.90;;;;;;4976555;28;20062;-81
2021/12/30 06:43:28;;;;;;;2.88;0.70;;;12.50;99.90;;;;;;4975235;28;20077;-82
2021/12/30 06:45:53;;;;;;;2.10;1.33;;;12.60;99.90;;;;;;4970000;28;20031;-80
2021/12/30 06:48:19;;;;;;;0.55;0.50;;;12.60;99.90;;;;;;4971953;28;20058;-80
2021/12/30 06:50:52;;;;;;;0.80;0.50;;;12.60;99.90;;;;;;4966823;28;20062;-81
2021/12/30 06:53:22;;;;;;;0.57;0.40;;;12.60;99.90;;;;;;4974638;28;20561;-80
2021/12/30 06:55:49;;;;;;;1.23;0.50;;;12.60;99.90;;;;;;4974765;28;20054;-80
2021/12/30 06:58:16;;;;;;;0.82;0.40;;;12.60;99.90;;;;;;4970902;28;20101;-80
2021/12/30 07:00:41;;;;;;;0.95;0.50;;;12.70;99.90;;;;;;4975709;28;20054;-80
2021/12/30 07:03:07;;;;;;;0.95;0.40;;;12.70;99.90;;;;;;4974843;28;20580;-80
2021/12/30 07:05:33;;;;;;;1.75;0.57;;;12.70;99.90;;;;;;4974669;28;20487;-82
2021/12/30 07:08:00;;;;;;;1.73;1.02;;;12.70;99.90;;;;;;4976853;28;20034;-81
2021/12/30 07:10:27;;;;;;;0.70;0.40;;;12.70;99.90;;;;;;4974602;28;20033;-80
2021/12/30 07:12:52;;;;;;;1.10;0.45;;;12.70;99.90;;;;;;4974716;28;20027;-81
2021/12/30 07:15:18;;;;;;;1.85;0.50;;;12.70;99.90;;;;;;4976911;28;20025;-81
2021/12/30 07:17:44;;;;;;;0.60;0.50;;;12.60;99.90;;;;;;4975924;28;20574;-80
2021/12/30 07:20:10;;;;;;;1.38;0.60;;;12.60;99.90;;;;;;4968822;28;20027;-81
2021/12/30 07:22:36;;;;;;;2.17;0.60;;;12.60;99.90;;;;;;4975777;28;20046;-81
2021/12/30 07:25:03;;;;;;;1.77;0.88;;;12.60;99.90;;;;;;4972083;28;20026;-82
2021/12/30 07:27:29;;;;;;;1.60;0.70;;;12.60;99.90;;;;;;4973140;28;20097;-80
2021/12/30 07:29:56;;;;;;;2.17;0.70;;;12.60;99.90;;;;;;4973297;28;20216;-79
2021/12/30 07:32:22;;;;;;;1.75;0.90;;;12.60;99.90;;;;;;4968033;28;20022;-80
2021/12/30 07:34:47;;;;;;;1.23;0.50;;;12.60;99.90;;;;;;4974228;28;20026;-80
2021/12/30 07:37:14;;;;;;;1.40;0.60;;;12.60;99.90;;;;;;4975525;28;20448;-79
2021/12/30 07:39:44;;;;;;;1.13;0.77;;;12.60;99.90;;;;;;4971449;28;20019;-79
2021/12/30 07:42:11;;;;;;;1.17;0.40;;;12.60;99.90;;;;;;4971942;28;20027;-80
2021/12/30 07:44:37;;;;;;;0.95;0.50;;;12.60;99.90;;;;;;4975875;28;20026;-81
2021/12/30 07:47:03;;;;;;;1.23;0.82;;;12.70;99.90;;;;;;4974322;28;20027;-81
2021/12/30 07:49:29;;;;;;;1.02;0.50;;;12.70;99.90;;;;;;4974388;28;20098;-81
2021/12/30 07:51:55;;;;;;;0.52;0.40;;;12.70;99.90;;;;;;4975996;28;20097;-80
2021/12/30 07:54:20;;;;;;;0.52;0.35;;;12.70;99.90;;;;;;4974010;28;20023;-80
2021/12/30 07:56:46;;;;;;;2.72;0.85;;;12.80;99.90;;;;;;4973087;28;20038;-81
2021/12/30 07:59:11;;;;;;;2.70;0.30;;;12.80;99.90;;;;;;4970019;28;20121;-81
2021/12/30 08:01:37;;;;;;;1.65;0.40;;;12.90;99.90;;;;;;4970117;28;20059;-80
2021/12/30 08:04:03;;;;;;;0.40;0.30;;;12.90;99.90;;;;;;4971038;28;20027;-80
2021/12/30 08:06:29;;;;;;;0.40;0.30;;;13.00;99.90;;;;;;4975313;28;20085;-79
2021/12/30 08:08:55;;;;;;;0.82;0.75;;;13.10;99.90;;;;;;5003078;28;20022;-79
2021/12/30 08:11:21;;;;;;;0.70;0.60;;;13.10;99.90;;;;;;4971970;28;20106;-81
2021/12/30 08:13:46;;;;;;;0.80;0.50;;;13.20;99.90;;;;;;4969139;28;20051;-82
2021/12/30 08:16:13;;;;;;;0.57;0.50;;;13.20;99.90;;;;;;4970517;28;20074;-78
2021/12/30 08:18:42;;;;;;;0.60;0.50;;;13.20;99.90;;;;;;4968194;28;20030;-81
2021/12/30 08:21:08;;;;;;;0.55;0.47;;;13.20;99.90;;;;;;4973280;28;20030;-80
2021/12/30 08:23:35;;;;;;;1.00;0.50;;;13.20;99.90;;;;;;4967487;28;20990;-81
2021/12/30 08:26:05;;;;;;;1.10;0.32;;;13.20;99.90;;;;;;4963093;28;20024;-80
2021/12/30 08:28:31;;;;;;;0.43;0.43;;;13.20;99.90;;;;;;4971794;28;20607;-80
2021/12/30 08:30:56;;;;;;;1.13;0.50;;;13.20;99.90;;;;;;4970191;28;20094;-81
2021/12/30 08:33:22;;;;;;;0.50;0.50;;;13.20;99.90;;;;;;4973506;28;20019;-81
2021/12/30 08:35:48;;;;;;;0.63;0.40;;;13.20;99.90;;;;;;4972680;28;20031;-81
2021/12/30 08:38:16;;;;;;;0.70;0.60;;;13.20;99.90;;;;;;4977705;28;20031;-82
2021/12/30 08:40:42;;;;;;;1.20;0.75;;;13.20;99.90;;;;;;4978433;28;20039;-81
2021/12/30 08:43:10;;;;;;;1.85;1.30;;;13.30;99.90;;;;;;4978544;28;20069;-80
2021/12/30 08:45:36;;;;;;;1.40;1.20;;;13.30;99.90;;;;;;4981838;28;20026;-83
2021/12/30 08:48:02;;;;;;;0.52;0.52;;;13.30;99.90;;;;;;4977855;28;20031;-81
2021/12/30 08:50:28;;;;;;;0.73;0.63;;;13.30;99.90;;;;;;4986269;28;20069;-80
2021/12/30 08:52:54;;;;;;;0.90;0.80;;;13.30;99.90;;;;;;4998512;28;20026;-78
2021/12/30 08:55:19;;;;;;;1.00;0.55;;;13.50;99.90;;;;;;4997994;28;20018;-80
2021/12/30 08:57:47;;;;;;;1.67;0.88;;;13.50;99.90;;;;;;4996538;28;20098;-80
2021/12/30 09:00:20;;;;;;;2.38;0.70;;;13.50;99.90;;;;;;4982984;28;20019;-81
2021/12/30 09:02:45;;;;;;;0.40;0.40;;;13.50;99.90;;;;;;4978286;28;20042;-80
2021/12/30 09:05:11;;;;;;;0.68;0.55;;;13.50;99.90;;;;;;4978234;28;20603;-81
2021/12/30 09:07:37;;;;;;;0.90;0.40;;;13.60;99.90;;;;;;4975864;28;20082;-81
2021/12/30 09:10:06;;;;;;;0.50;0.50;;;13.80;99.90;;;;;;4977592;28;20074;-81
2021/12/30 09:12:32;;;;;;;1.05;0.50;;;13.90;99.90;;;;;;4979005;28;20546;-80
2021/12/30 09:14:58;;;;;;;0.77;0.43;;;13.90;99.90;;;;;;4978606;28;20061;-81
2021/12/30 09:17:24;;;;;;;1.17;0.52;;;14.00;99.90;;;;;;4971513;28;20031;-82
2021/12/30 09:19:49;;;;;;;0.63;0.43;;;14.00;99.90;;;;;;4978017;28;20723;-80
2021/12/30 09:22:15;;;;;;;1.27;1.20;;;14.10;99.90;;;;;;4983102;28;20053;-79
2021/12/30 09:24:41;;;;;;;0.55;0.55;;;14.40;99.90;;;;;;4987113;28;20037;-82
2021/12/30 09:27:06;;;;;;;0.50;0.50;;;14.50;99.90;;;;;;4980380;28;20108;-82
2021/12/30 09:29:32;;;;;;;0.82;0.65;;;14.50;99.90;;;;;;4978543;28;20019;-83
2021/12/30 09:31:58;;;;;;;0.55;0.40;;;14.70;99.90;;;;;;4975612;28;20105;-80
2021/12/30 09:34:24;;;;;;;1.83;0.50;;;14.60;99.90;;;;;;4977992;28;20019;-83
2021/12/30 09:36:49;;;;;;;1.42;0.98;;;14.60;99.90;;;;;;4977718;28;20057;-80
2021/12/30 09:39:16;;;;;;;2.88;0.75;;;14.80;99.90;;;;;;4980277;28;20039;-82
2021/12/30 09:41:44;;;;;;;0.93;0.40;;;14.70;99.90;;;;;;4978392;28;20038;-82
2021/12/30 09:44:12;;;;;;;0.30;0.30;;;14.70;99.90;;;;;;4977124;28;20023;-81
2021/12/30 09:46:39;;;;;;;0.60;0.40;;;14.80;99.90;;;;;;4983337;28;20031;-81
2021/12/30 09:49:06;;;;;;;2.22;0.43;;;14.90;99.90;;;;;;4971325;28;20033;-82
2021/12/30 09:51:33;;;;;;;0.50;0.50;;;15.00;99.90;;;;;;4976614;28;20027;-82
2021/12/30 09:54:00;;;;;;;0.52;0.52;;;15.00;99.90;;;;;;4978251;28;20077;-82
2021/12/30 09:56:27;;;;;;;0.30;0.30;;;15.00;63.30;;;;;;4977342;28;20062;-82
2021/12/30 09:58:53;;;;;;;1.42;0.68;;;15.00;70.70;;;;;;4977092;28;20345;-81
2021/12/30 10:01:19;;;;;;;1.85;0.50;;;15.00;1.00;;;;;;4977911;28;20688;-83
2021/12/30 10:03:46;;;;;;;1.75;0.50;;;15.00;1.00;;;;;;4976711;28;20023;-82
2021/12/30 10:06:15;;;;;;;0.50;0.30;;;15.00;1.00;;;;;;4974927;28;20035;-81
2021/12/30 10:08:53;;;;;;;1.05;0.43;;;15.10;1.00;;;;;;4975447;28;20030;-81
2021/12/30 10:11:19;;;;;;;1.00;0.65;;;15.20;1.00;;;;;;4980588;28;20018;-81
2021/12/30 10:13:57;;;;;;;0.40;0.40;;;15.20;1.00;;;;;;4975425;28;20415;-81
2021/12/30 10:16:24;;;;;;;0.40;0.38;;;15.20;1.00;;;;;;4972011;28;20023;-82
2021/12/30 10:18:57;;;;;;;0.85;0.45;;;15.20;1.00;;;;;;4977114;28;20034;-80
2021/12/30 10:21:27;;;;;;;0.70;0.47;;;15.40;1.00;;;;;;4973140;28;20024;-81
2021/12/30 10:23:55;;;;;;;0.50;0.40;;;15.30;1.00;;;;;;4973862;28;20033;-82
2021/12/30 10:26:21;;;;;;;1.00;0.30;;;15.20;1.00;;;;;;4984842;28;20495;-80
2021/12/30 10:28:59;;;;;;;0.60;0.30;;;15.30;1.00;;;;;;4988707;28;20089;-79
2021/12/30 10:31:28;;;;;;;0.30;0.30;;;15.30;1.00;;;;;;4991139;28;20098;-80
2021/12/30 10:34:00;;;;;;;0.35;0.32;;;15.30;1.00;;;;;;4993521;28;20010;-80
2021/12/30 10:36:31;;;;;;;0.50;0.40;;;15.30;1.00;;;;;;4980405;28;20034;-78
2021/12/30 10:39:18;;;;;;;0.30;0.30;;;15.30;1.00;;;;;;4977018;28;20027;-78
2021/12/30 10:41:44;;;;;;;1.15;0.50;;;15.50;1.00;;;;;;4974070;28;20026;-77
2021/12/30 10:44:10;;;;;;;0.45;0.43;;;15.60;1.00;;;;;;4967308;28;20058;-78
2021/12/30 10:46:36;;;;;;;0.50;0.50;;;15.70;1.00;;;;;;4977013;28;20035;-78
2021/12/30 10:49:09;;;;;;;0.38;0.38;;;15.80;1.00;;;;;;4971191;28;20037;-82
2021/12/30 10:51:48;;;;;;;0.30;0.30;;;15.90;99.90;;;;;;4977685;28;20091;-79
2021/12/30 10:54:18;;;;;;;0.38;0.30;;;15.90;1.00;;;;;;4978815;28;20025;-78
2021/12/30 10:56:58;;;;;;;0.60;0.43;;;15.90;1.00;;;;;;4975072;28;20133;-77
2021/12/30 10:59:29;;;;;;;2.20;0.30;;;16.00;1.00;;;;;;4974875;28;20034;-77
2021/12/30 11:02:00;;;;;;;0.40;0.40;;;16.10;1.00;;;;;;4971963;28;20031;-79
2021/12/30 11:04:37;;;;;;;0.32;0.32;;;16.10;1.00;;;;;;4981105;28;20510;-75
2021/12/30 11:07:04;;;;;;;0.73;0.60;;;16.20;1.00;;;;;;4972126;28;20034;-75
2021/12/30 11:09:30;;;;;;;2.38;0.60;;;16.20;99.90;;;;;;4974912;28;20021;-75
2021/12/30 11:11:59;;;;;;;0.75;0.30;;;16.30;99.90;;;;;;4974394;28;20031;-75
2021/12/30 11:14:27;;;;;;;0.90;0.57;;;16.30;99.90;;;;;;4976158;28;20067;-79
2021/12/30 11:17:10;;;;;;;0.30;0.30;;;16.50;99.90;;;;;;4982636;28;20029;-81
2021/12/30 11:19:40;;;;;;;0.82;0.30;;;16.50;99.90;;;;;;4977549;28;20035;-81
2021/12/30 11:22:15;;;;;;;0.50;0.30;;;16.60;99.90;;;;;;4979563;28;20042;-80
2021/12/30 11:24:43;;;;;;;0.30;0.30;;;16.60;99.90;;;;;;4998965;28;20043;-81
2021/12/30 11:27:10;;;;;;;0.20;0.20;;;16.50;99.90;;;;;;4999045;28;20027;-79
2021/12/30 11:29:38;;;;;;;0.93;0.28;;;16.50;99.90;;;;;;5005910;28;20022;-77
2021/12/30 11:32:07;;;;;;;0.47;0.45;;;16.60;99.90;;;;;;4997710;28;20042;-77
2021/12/30 11:34:33;;;;;;;0.77;0.50;;;16.70;99.90;;;;;;4996894;28;20039;-79
2021/12/30 11:37:00;;;;;;;0.50;0.30;;;16.80;99.90;;;;;;4986189;28;20030;-76
2021/12/30 11:39:26;;;;;;;0.60;0.45;;;16.80;99.90;;;;;;4975513;28;20042;-76
2021/12/30 11:42:06;;;;;;;1.63;0.40;;;16.80;99.90;;;;;;4972153;28;20070;-77
2021/12/30 11:44:38;;;;;;;0.43;0.40;;;16.80;99.90;;;;;;4975831;28;20023;-76
2021/12/30 11:47:06;;;;;;;2.33;0.45;;;16.80;99.90;;;;;;4970407;28;20484;-76
2021/12/30 11:49:52;;;;;;;0.38;0.30;;;16.80;99.90;;;;;;4968832;28;20030;-77
2021/12/30 11:52:46;;;;;;;0.30;0.30;;;17.00;99.90;;;;;;4974333;28;20471;-76
2021/12/30 11:55:42;;;;;;;0.60;0.20;;;17.00;99.90;;;;;;4972402;28;20078;-76
2021/12/30 11:58:32;;;;;;;0.40;0.40;;;17.00;99.90;;;;;;4971806;28;20033;-77
2021/12/30 12:01:11;;;;;;;0.38;0.30;;;17.20;99.90;;;;;;4971277;28;20099;-76
2021/12/30 12:03:54;;;;;;;0.52;0.30;;;17.20;99.90;;;;;;4973396;28;20487;-75
2021/12/30 12:06:25;;;;;;;1.30;0.30;;;17.10;99.90;;;;;;4969714;28;20105;-75
2021/12/30 12:08:53;;;;;;;0.30;0.20;;;17.20;99.90;;;;;;4974649;28;20023;-76
2021/12/30 12:11:21;;;;;;;0.55;0.55;;;17.10;99.90;;;;;;4972972;28;20090;-76
2021/12/30 12:13:49;;;;;;;0.20;0.20;;;17.20;99.90;;;;;;4969222;28;20015;-75
2021/12/30 12:16:56;;;;;;;0.25;0.20;;;17.30;99.90;;;;;;4971943;28;20027;-75
2021/12/30 12:19:42;;;;;;;0.10;0.10;;;17.20;99.90;;;;;;4973119;28;20141;-77
2021/12/30 12:22:16;;;;;;;0.28;0.20;;;17.20;99.90;;;;;;4975647;28;20375;-75
2021/12/30 12:24:42;;;;;;;0.73;0.30;;;17.20;99.90;;;;;;4975969;28;20014;-77
2021/12/30 12:27:18;;;;;;;0.20;0.20;;;17.30;99.90;;;;;;4964458;28;20050;-74
2021/12/30 12:29:46;;;;;;;0.28;0.28;;;17.20;99.90;;;;;;4963026;28;20023;-75
2021/12/30 12:32:41;;;;;;;0.10;0.10;;;17.20;99.90;;;;;;4970289;28;20150;-74
2021/12/30 12:35:16;;;;;;;1.40;0.20;;;17.20;99.90;;;;;;4971130;28;20035;-74
2021/12/30 12:37:41;;;;;;;0.22;0.20;;;17.00;99.90;;;;;;4972419;28;20015;-74
2021/12/30 12:40:12;;;;;;;0.20;0.20;;;17.00;99.90;;;;;;4970430;28;20045;-74
2021/12/30 12:42:59;;;;;;;0.10;0.10;;;16.90;99.90;;;;;;4970141;28;20552;-75
2021/12/30 12:45:50;;;;;;;0.47;0.30;;;16.70;99.90;;;;;;4960139;28;20566;-73
2021/12/30 12:48:21;;;;;;;0.30;0.30;;;16.60;99.90;;;;;;4970444;28;20495;-74
2021/12/30 12:50:50;;;;;;;0.38;0.30;;;16.60;99.90;;;;;;4972733;28;20019;-74
2021/12/30 12:53:24;;;;;;;0.30;0.30;;;16.60;99.90;;;;;;4972884;28;20052;-74
2021/12/30 12:56:00;;;;;;;0.55;0.55;;;16.50;99.90;;;;;;4969760;28;20019;-73